Time;durP1;ratioP1;P1;durP2;ratioP2;P2;SDS_P1;SDS_P2;PMS_P1;PMS_P2;Temp;Humidity;BMP_temperature;BMP_pressure;BME280_temperature;BME280_humidity;BME280_pressure;Samples;Min_cycle;Max_cycle;Signal;HPM_P1;HPM_P2
2022/08/19 00:00:18;;;;;;;11.90;3.95;;;;;;;22.93;63.04;99242.13;4991181;28;20042;-88
2022/08/19 00:02:45;;;;;;;12.82;3.95;;;;;;;22.87;62.91;99235.81;4990969;28;20038;-87
2022/08/19 00:05:12;;;;;;;13.90;4.35;;;;;;;22.90;63.38;99229.06;5002197;28;20500;-88
2022/08/19 00:07:37;;;;;;;11.63;4.38;;;;;;;22.86;63.85;99239.19;4991547;28;20054;-87
2022/08/19 00:10:05;;;;;;;9.10;4.13;;;;;;;22.79;63.78;99229.28;4992590;28;20512;-87
2022/08/19 00:12:31;;;;;;;12.20;4.80;;;;;;;22.78;64.01;99230.56;4975367;28;20046;-87
2022/08/19 00:14:56;;;;;;;11.95;4.30;;;;;;;22.78;63.87;99222.09;4991962;28;20096;-80
2022/08/19 00:17:22;;;;;;;11.60;4.80;;;;;;;22.48;65.56;99233.63;4989767;28;20615;-79
2022/08/19 00:19:47;;;;;;;14.68;4.82;;;;;;;22.38;65.83;99217.59;5004079;28;20512;-78
2022/08/19 00:22:13;;;;;;;10.13;3.83;;;;;;;22.43;64.92;99213.94;4980951;28;20043;-79
2022/08/19 00:24:40;;;;;;;12.18;4.28;;;;;;;22.47;64.17;99208.72;4993502;28;20049;-79
2022/08/19 00:27:06;;;;;;;8.40;4.55;;;;;;;22.51;64.93;99209.19;4992313;28;20176;-79
2022/08/19 00:29:32;;;;;;;12.18;4.20;;;;;;;22.47;65.16;99208.72;4991375;28;20129;-80
2022/08/19 00:31:59;;;;;;;8.93;4.38;;;;;;;22.47;64.89;99194.59;4989689;28;20391;-79
2022/08/19 00:34:27;;;;;;;13.02;4.18;;;;;;;22.51;64.13;99187.34;4991297;28;20042;-88
2022/08/19 00:36:53;;;;;;;9.57;3.58;;;;;;;22.55;63.15;99170.06;5000936;28;20050;-86
2022/08/19 00:39:19;;;;;;;9.43;4.10;;;;;;;22.55;63.11;99170.06;4991145;28;20042;-87
2022/08/19 00:41:47;;;;;;;8.52;4.07;;;;;;;22.59;62.53;99164.84;4974321;28;20059;-88
2022/08/19 00:44:19;;;;;;;12.25;3.70;;;;;;;22.62;62.11;99169.41;4988840;28;20061;-88
2022/08/19 00:46:47;;;;;;;8.77;3.50;;;;;;;22.67;61.68;99177.81;4990450;28;20125;-87
2022/08/19 00:49:20;;;;;;;9.43;3.80;;;;;;;22.63;61.91;99170.94;4978569;28;20054;-87
2022/08/19 00:51:47;;;;;;;10.63;3.97;;;;;;;22.68;61.93;99187.06;4991976;28;20047;-87
2022/08/19 00:54:13;;;;;;;13.88;4.38;;;;;;;22.63;62.97;99187.91;4994889;28;20049;-86
2022/08/19 00:56:40;;;;;;;10.18;4.50;;;;;;;22.51;63.47;99190.16;4988361;28;20034;-86
2022/08/19 00:59:08;;;;;;;10.15;4.13;;;;;;;22.41;64.47;99176.97;4955460;28;20092;-86
2022/08/19 01:01:39;;;;;;;8.65;3.63;;;;;;;21.97;66.71;99176.38;4998135;28;20130;-86
2022/08/19 01:04:05;;;;;;;9.27;4.13;;;;;;;21.99;65.97;99182.28;4998794;28;20427;-87
2022/08/19 01:06:32;;;;;;;9.70;3.58;;;;;;;21.99;66.36;99179.44;4990784;28;20038;-87
2022/08/19 01:08:58;;;;;;;9.43;4.20;;;;;;;22.04;65.37;99167.28;4996957;28;20048;-87
2022/08/19 01:11:25;;;;;;;8.38;3.50;;;;;;;22.12;64.74;99162.53;4991632;28;20088;-80
2022/08/19 01:13:52;;;;;;;8.98;3.60;;;;;;;22.18;63.64;99153.97;5007431;28;20054;-80
2022/08/19 01:16:19;;;;;;;9.25;3.55;;;;;;;22.19;64.13;99161.94;4991743;28;20046;-79
2022/08/19 01:18:45;;;;;;;9.68;3.38;;;;;;;22.16;64.07;99146.03;4989158;28;20515;-80
2022/08/19 01:21:22;;;;;;;8.23;3.50;;;;;;;22.18;64.55;99146.28;4974085;28;20050;-80
2022/08/19 01:23:47;;;;;;;8.77;3.58;;;;;;;22.14;65.10;99137.34;5006793;28;20120;-80
2022/08/19 01:26:19;;;;;;;11.23;4.00;;;;;;;22.07;66.49;99125.94;4999253;28;20172;-80
2022/08/19 01:28:47;;;;;;;10.23;3.75;;;;;;;21.98;67.69;99141.22;4978652;28;20073;-80
2022/08/19 01:31:15;;;;;;;9.50;3.83;;;;;;;22.04;67.22;99138.31;5010500;28;20046;-80
2022/08/19 01:33:41;;;;;;;8.13;3.50;;;;;;;22.00;65.78;99141.41;4992988;28;20050;-79
2022/08/19 01:36:16;;;;;;;8.60;3.80;;;;;;;22.03;66.73;99151.66;4994223;28;20547;-80
2022/08/19 01:38:43;;;;;;;6.88;3.40;;;;;;;22.04;64.10;99144.69;4978348;28;20045;-81
2022/08/19 01:41:10;;;;;;;10.32;3.33;;;;;;;22.08;63.62;99161.34;4994826;28;20054;-79
2022/08/19 01:43:36;;;;;;;10.23;3.60;;;;;;;22.04;64.88;99166.53;4994090;28;20427;-80
2022/08/19 01:46:03;;;;;;;9.13;3.85;;;;;;;22.06;66.34;99153.41;5007379;28;20136;-80
2022/08/19 01:48:36;;;;;;;8.98;3.92;;;;;;;21.89;67.57;99158.50;5009429;28;20062;-80
2022/08/19 01:51:02;;;;;;;7.68;3.70;;;;;;;21.92;67.94;99177.22;5001476;28;20039;-80
2022/08/19 01:53:28;;;;;;;10.95;4.50;;;;;;;21.77;69.10;99176.91;4994211;28;20065;-80
2022/08/19 01:55:54;;;;;;;11.27;4.20;;;;;;;21.74;68.92;99177.97;4974704;28;20069;-79
2022/08/19 01:58:23;;;;;;;11.20;4.18;;;;;;;21.70;70.05;99188.81;4993391;28;20135;-79
2022/08/19 02:00:49;;;;;;;7.05;3.92;;;;;;;21.63;70.17;99200.72;4995980;28;20034;-79
2022/08/19 02:03:15;;;;;;;6.55;3.95;;;;;;;21.68;69.58;99202.69;5001900;28;20547;-80
2022/08/19 02:05:42;;;;;;;11.70;4.45;;;;;;;21.61;69.12;99203.28;4994042;28;20038;-80
2022/08/19 02:08:08;;;;;;;12.35;4.03;;;;;;;21.54;70.78;99215.97;5007822;28;20072;-79
2022/08/19 02:10:33;;;;;;;11.13;4.35;;;;;;;21.51;70.68;99213.44;4983295;28;20065;-81
2022/08/19 02:12:59;;;;;;;9.63;3.85;;;;;;;21.52;71.76;99223.41;5007716;28;20116;-80
2022/08/19 02:15:25;;;;;;;10.23;4.13;;;;;;;21.49;71.67;99225.25;4992529;28;20031;-81
2022/08/19 02:17:51;;;;;;;9.05;4.10;;;;;;;21.51;70.74;99216.25;4974944;28;20105;-81
2022/08/19 02:20:17;;;;;;;9.15;4.50;;;;;;;21.50;71.78;99220.38;5006026;28;20131;-80
2022/08/19 02:22:43;;;;;;;10.32;4.00;;;;;;;21.50;70.94;99200.63;4993084;28;20038;-79
2022/08/19 02:25:12;;;;;;;8.02;3.97;;;;;;;21.50;70.38;99192.16;5007199;28;20393;-80
2022/08/19 02:27:39;;;;;;;9.75;5.05;;;;;;;21.39;71.73;99188.16;4993447;28;20042;-80
2022/08/19 02:30:06;;;;;;;8.38;4.55;;;;;;;21.40;70.98;99181.25;4992285;28;20057;-81
2022/08/19 02:32:32;;;;;;;11.60;4.63;;;;;;;21.40;70.97;99169.19;4976790;28;20400;-81
2022/08/19 02:34:57;;;;;;;9.02;4.18;;;;;;;21.35;72.13;99164.41;4992950;28;20038;-80
2022/08/19 02:40:07;;;;;;;10.40;4.25;;;;;;;21.12;73.19;99155.44;4999085;28;20054;-80
2022/08/19 02:42:33;;;;;;;8.23;4.30;;;;;;;21.12;72.76;99161.06;4990211;28;20052;-81
2022/08/19 02:44:59;;;;;;;7.47;4.30;;;;;;;21.15;73.15;99164.91;4992141;28;20054;-80
2022/08/19 02:47:24;;;;;;;10.15;4.22;;;;;;;21.08;74.35;99165.44;4992935;28;20077;-81
2022/08/19 02:49:50;;;;;;;10.50;4.20;;;;;;;21.03;74.20;99172.69;4994714;28;20066;-80
2022/08/19 02:52:16;;;;;;;8.85;4.35;;;;;;;21.06;73.52;99177.28;4992104;28;20042;-81
2022/08/19 02:54:42;;;;;;;9.25;4.50;;;;;;;21.01;74.37;99164.00;4991209;28;20077;-81
2022/08/19 02:57:07;;;;;;;7.75;4.30;;;;;;;21.02;74.00;99159.91;4995652;28;20042;-80
2022/08/19 02:59:33;;;;;;;8.98;4.93;;;;;;;20.94;75.57;99154.09;4991794;28;20420;-79
2022/08/19 03:01:58;;;;;;;9.50;4.30;;;;;;;20.83;75.51;99150.59;4996018;28;20145;-79
2022/08/19 03:04:24;;;;;;;7.80;4.13;;;;;;;20.84;74.83;99152.13;4992665;28;20042;-79
2022/08/19 03:06:50;;;;;;;9.30;4.45;;;;;;;20.89;74.66;99151.31;4992700;28;20050;-86
2022/08/19 03:09:17;;;;;;;8.93;4.22;;;;;;;20.93;74.24;99154.59;5008215;28;20038;-86
2022/08/19 03:11:43;;;;;;;13.25;4.22;;;;;;;20.71;76.43;99152.00;4990933;28;20039;-87
2022/08/19 03:14:09;;;;;;;7.40;4.53;;;;;;;20.62;76.47;99161.59;5011229;28;20099;-86
2022/08/19 03:16:43;;;;;;;9.82;4.07;;;;;;;20.73;75.58;99157.91;4984008;28;20125;-87
2022/08/19 03:19:09;;;;;;;9.52;4.57;;;;;;;20.78;75.34;99162.72;4994310;28;20050;-86
2022/08/19 03:21:34;;;;;;;8.35;4.43;;;;;;;20.73;76.14;99149.44;4993304;28;20527;-87
2022/08/19 03:24:03;;;;;;;7.05;4.63;;;;;;;20.79;75.11;99144.50;4991720;28;20491;-88
2022/08/19 03:26:29;;;;;;;9.38;4.70;;;;;;;20.78;75.82;99135.31;4992931;28;20038;-86
2022/08/19 03:28:55;;;;;;;12.50;4.50;;;;;;;20.74;76.48;99139.72;4991455;28;20089;-88
2022/08/19 03:31:22;;;;;;;9.88;4.78;;;;;;;20.73;76.56;99141.00;4992234;28;20508;-88
2022/08/19 03:33:49;;;;;;;9.48;4.40;;;;;;;20.78;76.19;99143.00;4993388;28;20488;-88
2022/08/19 03:36:17;;;;;;;8.55;4.40;;;;;;;20.71;77.30;99124.59;4990152;28;20038;-88
2022/08/19 03:38:48;;;;;;;9.63;4.25;;;;;;;20.73;76.58;99133.31;4994789;28;20048;-88
2022/08/19 03:41:18;;;;;;;9.98;4.40;;;;;;;20.72;76.37;99126.13;4991434;28;20412;-88
2022/08/19 03:43:48;;;;;;;10.63;4.28;;;;;;;20.73;76.64;99130.50;5014194;28;20050;-87
2022/08/19 03:46:22;;;;;;;9.38;4.63;;;;;;;20.74;75.79;99125.63;5014686;28;20128;-88
2022/08/19 03:48:53;;;;;;;9.23;4.70;;;;;;;20.75;75.86;99115.84;5011749;28;20041;-89
2022/08/19 03:51:27;;;;;;;14.57;5.13;;;;;;;20.80;76.45;99110.16;4997056;28;20050;-89
2022/08/19 03:53:55;;;;;;;15.80;4.93;;;;;;;20.68;76.78;99116.44;5009274;28;20041;-88
2022/08/19 03:56:21;;;;;;;8.25;4.18;;;;;;;20.68;76.81;99136.16;5009878;28;20046;-89
2022/08/19 03:58:47;;;;;;;10.45;3.90;;;;;;;20.73;75.61;99126.91;4999194;28;20399;-89
2022/08/19 04:01:17;;;;;;;12.90;3.95;;;;;;;20.77;74.92;99121.72;5010856;28;20044;-90
2022/08/19 04:03:43;;;;;;;7.20;3.30;;;;;;;20.83;74.59;99116.78;5011541;28;20049;-88
2022/08/19 04:06:14;;;;;;;7.10;3.88;;;;;;;20.89;74.49;99128.78;4993636;28;20057;-88
2022/08/19 04:08:41;;;;;;;10.77;3.95;;;;;;;20.92;74.42;99136.16;5012289;28;20120;-88
2022/08/19 04:11:13;;;;;;;12.60;4.40;;;;;;;20.86;75.25;99127.03;5012366;28;20033;-88
2022/08/19 04:13:38;;;;;;;9.88;3.83;;;;;;;20.91;74.50;99157.94;4993488;28;20041;-88
2022/08/19 04:16:05;;;;;;;10.48;4.10;;;;;;;20.96;74.03;99147.91;4994386;28;20049;-88
2022/08/19 04:18:32;;;;;;;8.65;3.47;;;;;;;21.02;73.91;99159.91;5011014;28;20048;-88
2022/08/19 04:20:58;;;;;;;10.02;3.80;;;;;;;21.04;72.99;99165.75;5009843;28;20541;-88
2022/08/19 04:23:24;;;;;;;10.55;3.78;;;;;;;21.20;71.26;99162.00;5015929;28;20041;-88
2022/08/19 04:25:49;;;;;;;8.60;3.78;;;;;;;21.28;70.87;99160.09;5024425;28;20556;-86
2022/08/19 04:28:15;;;;;;;9.70;3.60;;;;;;;21.39;70.58;99165.59;5015573;28;20072;-87
2022/08/19 04:30:43;;;;;;;11.13;3.90;;;;;;;21.52;69.92;99164.16;5011336;28;20060;-88
2022/08/19 04:33:10;;;;;;;11.40;4.22;;;;;;;21.60;70.08;99162.25;4990397;28;20463;-88
2022/08/19 04:35:38;;;;;;;12.75;4.03;;;;;;;21.73;71.64;99171.56;5011892;28;20045;-89
2022/08/19 04:38:04;;;;;;;9.02;4.85;;;;;;;21.82;73.07;99178.88;5027151;28;20045;-88
2022/08/19 04:43:15;;;;;;;11.23;4.57;;;;;;;21.95;73.48;99181.06;5009726;28;20118;-88
2022/08/19 04:45:43;;;;;;;13.73;4.65;;;;;;;22.03;73.58;99194.00;4991040;28;20048;-88
2022/08/19 04:48:09;;;;;;;14.07;4.20;;;;;;;22.08;73.64;99207.28;4989505;28;20121;-89
2022/08/19 04:50:35;;;;;;;9.65;3.90;;;;;;;22.14;70.61;99210.03;4989759;28;20093;-88
2022/08/19 04:53:01;;;;;;;10.10;3.95;;;;;;;22.10;69.78;99206.75;4991599;28;20045;-89
2022/08/19 04:55:27;;;;;;;11.07;4.07;;;;;;;22.18;70.90;99211.25;4993070;28;20046;-89
2022/08/19 04:57:53;;;;;;;11.32;4.15;;;;;;;22.26;70.70;99186.72;4984994;28;20070;-88
2022/08/19 05:00:19;;;;;;;9.82;4.57;;;;;;;22.31;71.66;99173.81;5005482;28;20556;-87
2022/08/19 05:02:44;;;;;;;10.50;4.30;;;;;;;22.47;72.28;99174.81;4996789;28;20515;-87
2022/08/19 05:05:10;;;;;;;11.88;4.93;;;;;;;22.54;72.71;99168.53;5005698;28;20076;-87
2022/08/19 05:07:36;;;;;;;9.98;5.10;;;;;;;22.50;71.77;99168.09;4975751;28;20085;-86
2022/08/19 05:10:03;;;;;;;12.85;4.93;;;;;;;22.55;71.18;99170.06;5005214;28;20050;-88
2022/08/19 05:12:29;;;;;;;12.68;4.90;;;;;;;22.39;72.20;99173.94;4977367;28;20786;-89
2022/08/19 05:14:56;;;;;;;11.25;4.88;;;;;;;22.49;72.09;99184.28;5007751;28;20130;-88
2022/08/19 05:17:22;;;;;;;10.13;4.80;;;;;;;22.57;72.63;99181.56;5011099;28;20431;-88
2022/08/19 05:22:32;;;;;;;11.90;5.07;;;;;;;22.44;74.32;99207.00;5009915;28;20056;-89
2022/08/19 05:25:00;;;;;;;10.73;4.82;;;;;;;22.59;72.71;99215.72;4999918;28;20042;-89
2022/08/19 05:27:25;;;;;;;11.27;4.95;;;;;;;22.64;74.40;99220.53;5002098;28;20042;-89
2022/08/19 05:29:51;;;;;;;14.30;5.53;;;;;;;22.70;74.54;99215.56;4991284;28;20069;-88
2022/08/19 05:32:16;;;;;;;13.93;5.25;;;;;;;22.90;73.39;99223.41;5007265;28;20034;-89
2022/08/19 05:34:42;;;;;;;12.23;5.63;;;;;;;23.04;74.26;99244.78;4999403;28;20066;-87
2022/08/19 05:37:08;;;;;;;17.75;5.93;;;;;;;23.19;74.37;99244.22;4992249;28;20039;-87
2022/08/19 05:39:36;;;;;;;12.63;6.13;;;;;;;23.28;74.61;99240.97;4975235;28;20031;-79
2022/08/19 05:42:09;;;;;;;15.88;5.88;;;;;;;23.43;75.64;99258.19;4998000;28;20053;-79
2022/08/19 05:44:39;;;;;;;15.35;6.38;;;;;;;23.53;76.41;99270.63;4992785;28;20122;-79
2022/08/19 05:47:06;;;;;;;11.45;5.88;;;;;;;23.66;76.42;99269.81;4990693;28;20113;-81
2022/08/19 05:49:32;;;;;;;13.15;6.38;;;;;;;23.80;77.18;99268.50;5005446;28;20044;-84
2022/08/19 05:51:59;;;;;;;11.80;6.20;;;;;;;23.90;76.79;99275.25;4990709;28;20503;-85
2022/08/19 05:54:24;;;;;;;16.23;6.47;;;;;;;24.04;77.15;99284.47;4990324;28;20053;-84
2022/08/19 05:56:51;;;;;;;15.30;6.75;;;;;;;24.17;77.31;99290.16;4996014;28;20051;-85
2022/08/19 05:59:17;;;;;;;13.60;6.47;;;;;;;24.31;77.82;99296.53;4989585;28;20058;-84
2022/08/19 06:01:45;;;;;;;11.88;6.25;;;;;;;24.48;76.19;99296.91;4990276;28;20054;-84
2022/08/19 06:04:13;;;;;;;13.90;6.13;;;;;;;24.45;74.19;99309.34;4990414;28;20044;-85
